sensor_id;sensor_type;location;lat;lon;timestamp;pressure;altitude;pressure_sealevel;temperature
80422;BMP280;69763;50.182;9.144;2024-03-23T00:53:00;99075.50;;;4.03
80422;BMP280;69763;50.182;9.144;2024-03-23T00:55:25;99071.13;;;4.00
80422;BMP280;69763;50.182;9.144;2024-03-23T00:57:51;99062.13;;;4.14
80422;BMP280;69763;50.182;9.144;2024-03-23T01:00:17;99057.00;;;4.11
80422;BMP280;69763;50.182;9.144;2024-03-23T01:02:42;99057.50;;;4.20
80422;BMP280;69763;50.182;9.144;2024-03-23T01:05:08;99043.09;;;4.29
80422;BMP280;69763;50.182;9.144;2024-03-23T01:07:33;99037.22;;;4.36
80422;BMP280;69763;50.182;9.144;2024-03-23T01:10:00;99022.56;;;4.48
80422;BMP280;69763;50.182;9.144;2024-03-23T01:12:25;99028.38;;;4.58
80422;BMP280;69763;50.182;9.144;2024-03-23T01:14:51;99037.41;;;4.66
80422;BMP280;69763;50.182;9.144;2024-03-23T01:17:16;99028.38;;;4.69
80422;BMP280;69763;50.182;9.144;2024-03-23T01:19:42;99021.78;;;4.70
80422;BMP280;69763;50.182;9.144;2024-03-23T01:22:07;99014.94;;;4.75
80422;BMP280;69763;50.182;9.144;2024-03-23T01:24:32;99015.16;;;4.77
80422;BMP280;69763;50.182;9.144;2024-03-23T01:26:59;99007.38;;;4.73
80422;BMP280;69763;50.182;9.144;2024-03-23T01:29:24;98996.19;;;4.69
80422;BMP280;69763;50.182;9.144;2024-03-23T01:31:50;98984.72;;;4.69
80422;BMP280;69763;50.182;9.144;2024-03-23T01:34:15;98978.09;;;4.75
80422;BMP280;69763;50.182;9.144;2024-03-23T01:36:41;98985.34;;;4.86
80422;BMP280;69763;50.182;9.144;2024-03-23T01:39:06;99011.69;;;4.93
80422;BMP280;69763;50.182;9.144;2024-03-23T01:41:31;99017.75;;;4.99
80422;BMP280;69763;50.182;9.144;2024-03-23T01:44:04;98977.97;;;5.03
80422;BMP280;69763;50.182;9.144;2024-03-23T01:46:30;98969.91;;;4.97
80422;BMP280;69763;50.182;9.144;2024-03-23T01:48:56;98978.69;;;4.98
80422;BMP280;69763;50.182;9.144;2024-03-23T01:51:22;98966.47;;;5.02
80422;BMP280;69763;50.182;9.144;2024-03-23T01:53:48;98970.81;;;5.11
80422;BMP280;69763;50.182;9.144;2024-03-23T01:56:13;98960.31;;;5.13
80422;BMP280;69763;50.182;9.144;2024-03-23T01:58:39;98959.59;;;5.13
80422;BMP280;69763;50.182;9.144;2024-03-23T02:01:05;98957.34;;;5.22
80422;BMP280;69763;50.182;9.144;2024-03-23T02:03:31;98949.50;;;5.24
80422;BMP280;69763;50.182;9.144;2024-03-23T02:05:56;98943.41;;;5.24
80422;BMP280;69763;50.182;9.144;2024-03-23T02:08:23;98947.56;;;5.25
80422;BMP280;69763;50.182;9.144;2024-03-23T02:10:49;98948.03;;;5.23
80422;BMP280;69763;50.182;9.144;2024-03-23T02:13:15;98938.28;;;5.20
80422;BMP280;69763;50.182;9.144;2024-03-23T02:15:41;98949.09;;;5.15
80422;BMP280;69763;50.182;9.144;2024-03-23T02:18:08;98942.75;;;5.12
80422;BMP280;69763;50.182;9.144;2024-03-23T02:20:34;98921.00;;;5.16
80422;BMP280;69763;50.182;9.144;2024-03-23T02:23:01;98919.53;;;5.15
80422;BMP280;69763;50.182;9.144;2024-03-23T02:25:26;98917.59;;;5.15
80422;BMP280;69763;50.182;9.144;2024-03-23T02:27:51;98913.56;;;5.27
80422;BMP280;69763;50.182;9.144;2024-03-23T02:30:17;98914.69;;;5.43
80422;BMP280;69763;50.182;9.144;2024-03-23T02:32:42;98915.81;;;5.53
80422;BMP280;69763;50.182;9.144;2024-03-23T02:35:08;98915.25;;;5.60
80422;BMP280;69763;50.182;9.144;2024-03-23T02:37:33;98920.38;;;5.64
80422;BMP280;69763;50.182;9.144;2024-03-23T02:40:00;98910.63;;;5.61
80422;BMP280;69763;50.182;9.144;2024-03-23T02:42:25;98900.19;;;5.52
80422;BMP280;69763;50.182;9.144;2024-03-23T02:44:50;98900.78;;;5.39
80422;BMP280;69763;50.182;9.144;2024-03-23T02:47:16;98890.56;;;5.32
80422;BMP280;69763;50.182;9.144;2024-03-23T02:49:41;98889.84;;;5.31
80422;BMP280;69763;50.182;9.144;2024-03-23T02:52:06;98887.16;;;5.31
80422;BMP280;69763;50.182;9.144;2024-03-23T02:54:32;98889.63;;;5.29
80422;BMP280;69763;50.182;9.144;2024-03-23T02:56:58;98875.56;;;5.18
80422;BMP280;69763;50.182;9.144;2024-03-23T02:59:24;98886.66;;;5.03
80422;BMP280;69763;50.182;9.144;2024-03-23T03:01:49;98871.09;;;4.90
80422;BMP280;69763;50.182;9.144;2024-03-23T03:04:14;98872.88;;;4.82
80422;BMP280;69763;50.182;9.144;2024-03-23T03:06:40;98863.66;;;4.72
80422;BMP280;69763;50.182;9.144;2024-03-23T03:09:05;98854.19;;;4.65
80422;BMP280;69763;50.182;9.144;2024-03-23T03:11:31;98856.88;;;4.65
80422;BMP280;69763;50.182;9.144;2024-03-23T03:13:57;98856.63;;;4.63
80422;BMP280;69763;50.182;9.144;2024-03-23T03:16:23;98848.09;;;4.65
80422;BMP280;69763;50.182;9.144;2024-03-23T03:18:48;98843.44;;;4.65
80422;BMP280;69763;50.182;9.144;2024-03-23T03:21:13;98840.53;;;4.63
80422;BMP280;69763;50.182;9.144;2024-03-23T03:23:39;98835.13;;;4.69
80422;BMP280;69763;50.182;9.144;2024-03-23T03:26:05;98840.72;;;4.71
80422;BMP280;69763;50.182;9.144;2024-03-23T03:28:31;98850.22;;;4.72
80422;BMP280;69763;50.182;9.144;2024-03-23T03:30:58;98858.72;;;4.76
80422;BMP280;69763;50.182;9.144;2024-03-23T03:33:23;98855.53;;;4.83
80422;BMP280;69763;50.182;9.144;2024-03-23T03:35:48;98840.09;;;4.89
80422;BMP280;69763;50.182;9.144;2024-03-23T03:38:14;98838.38;;;4.92
80422;BMP280;69763;50.182;9.144;2024-03-23T03:40:39;98848.16;;;4.89
80422;BMP280;69763;50.182;9.144;2024-03-23T03:43:06;98843.03;;;4.91
80422;BMP280;69763;50.182;9.144;2024-03-23T03:45:32;98832.78;;;4.90
80422;BMP280;69763;50.182;9.144;2024-03-23T03:47:58;98821.56;;;4.86
80422;BMP280;69763;50.182;9.144;2024-03-23T03:50:24;98824.03;;;4.84
80422;BMP280;69763;50.182;9.144;2024-03-23T03:52:49;98814.97;;;4.87
80422;BMP280;69763;50.182;9.144;2024-03-23T03:55:15;98810.06;;;4.91
80422;BMP280;69763;50.182;9.144;2024-03-23T03:57:41;98811.31;;;4.90
80422;BMP280;69763;50.182;9.144;2024-03-23T04:00:07;98804.47;;;4.89
80422;BMP280;69763;50.182;9.144;2024-03-23T04:02:33;98816.19;;;4.91
80422;BMP280;69763;50.182;9.144;2024-03-23T04:05:01;98827.38;;;4.95
80422;BMP280;69763;50.182;9.144;2024-03-23T04:07:26;98824.13;;;5.08
80422;BMP280;69763;50.182;9.144;2024-03-23T04:09:52;98818.88;;;5.21
80422;BMP280;69763;50.182;9.144;2024-03-23T04:12:17;98816.59;;;5.31
80422;BMP280;69763;50.182;9.144;2024-03-23T04:14:42;98810.66;;;5.38
80422;BMP280;69763;50.182;9.144;2024-03-23T04:17:08;98804.28;;;5.41
80422;BMP280;69763;50.182;9.144;2024-03-23T04:19:33;98801.53;;;5.47
80422;BMP280;69763;50.182;9.144;2024-03-23T04:22:00;98808.84;;;5.46
80422;BMP280;69763;50.182;9.144;2024-03-23T04:24:25;98815.41;;;5.51
80422;BMP280;69763;50.182;9.144;2024-03-23T04:26:51;98814.44;;;5.54
80422;BMP280;69763;50.182;9.144;2024-03-23T04:29:16;98813.34;;;5.62
80422;BMP280;69763;50.182;9.144;2024-03-23T04:31:42;98805.94;;;5.68
80422;BMP280;69763;50.182;9.144;2024-03-23T04:34:07;98804.19;;;5.76
80422;BMP280;69763;50.182;9.144;2024-03-23T04:36:32;98808.38;;;5.91
80422;BMP280;69763;50.182;9.144;2024-03-23T04:39:00;98811.88;;;6.04
80422;BMP280;69763;50.182;9.144;2024-03-23T04:41:25;98825.94;;;6.16
80422;BMP280;69763;50.182;9.144;2024-03-23T04:43:51;98832.47;;;6.21
80422;BMP280;69763;50.182;9.144;2024-03-23T04:46:16;98831.25;;;6.22
80422;BMP280;69763;50.182;9.144;2024-03-23T04:48:42;98835.59;;;6.25
80422;BMP280;69763;50.182;9.144;2024-03-23T04:51:07;98843.06;;;6.32
80422;BMP280;69763;50.182;9.144;2024-03-23T04:53:32;98840.81;;;6.36
80422;BMP280;69763;50.182;9.144;2024-03-23T04:55:59;98853.28;;;6.39
80422;BMP280;69763;50.182;9.144;2024-03-23T04:58:24;98849.84;;;6.38
80422;BMP280;69763;50.182;9.144;2024-03-23T05:00:53;98866.22;;;6.40
80422;BMP280;69763;50.182;9.144;2024-03-23T05:03:19;98873.06;;;6.41
80422;BMP280;69763;50.182;9.144;2024-03-23T05:05:44;98887.22;;;6.42
80422;BMP280;69763;50.182;9.144;2024-03-23T05:08:09;98881.84;;;6.42
80422;BMP280;69763;50.182;9.144;2024-03-23T05:10:35;98882.16;;;6.38
80422;BMP280;69763;50.182;9.144;2024-03-23T05:13:01;98889.03;;;6.34
80422;BMP280;69763;50.182;9.144;2024-03-23T05:15:27;98899.41;;;6.30
80422;BMP280;69763;50.182;9.144;2024-03-23T05:17:52;98898.22;;;6.25
80422;BMP280;69763;50.182;9.144;2024-03-23T05:20:18;98896.03;;;6.24
80422;BMP280;69763;50.182;9.144;2024-03-23T05:22:43;98913.19;;;6.21
80422;BMP280;69763;50.182;9.144;2024-03-23T05:25:09;98920.56;;;6.20
80422;BMP280;69763;50.182;9.144;2024-03-23T05:27:34;98912.47;;;6.20
80422;BMP280;69763;50.182;9.144;2024-03-23T05:30:01;98917.13;;;6.20
80422;BMP280;69763;50.182;9.144;2024-03-23T05:32:26;98930.59;;;6.20
80422;BMP280;69763;50.182;9.144;2024-03-23T05:34:53;98933.28;;;6.20
80422;BMP280;69763;50.182;9.144;2024-03-23T05:37:18;98955.53;;;6.20
80422;BMP280;69763;50.182;9.144;2024-03-23T05:39:44;98967.00;;;6.21
80422;BMP280;69763;50.182;9.144;2024-03-23T05:42:09;98957.50;;;6.20
80422;BMP280;69763;50.182;9.144;2024-03-23T05:44:35;98954.56;;;6.18
80422;BMP280;69763;50.182;9.144;2024-03-23T05:47:01;98973.44;;;6.12
80422;BMP280;69763;50.182;9.144;2024-03-23T05:49:26;98989.41;;;6.04
80422;BMP280;69763;50.182;9.144;2024-03-23T05:51:52;98999.28;;;5.96
80422;BMP280;69763;50.182;9.144;2024-03-23T05:54:17;99018.63;;;5.89
80422;BMP280;69763;50.182;9.144;2024-03-23T05:56:43;99021.88;;;5.82
80422;BMP280;69763;50.182;9.144;2024-03-23T05:59:08;99037.34;;;5.76
80422;BMP280;69763;50.182;9.144;2024-03-23T06:01:33;99043.97;;;5.69
80422;BMP280;69763;50.182;9.144;2024-03-23T06:04:00;99052.59;;;5.62
80422;BMP280;69763;50.182;9.144;2024-03-23T06:06:25;99069.97;;;5.56
80422;BMP280;69763;50.182;9.144;2024-03-23T06:08:51;99092.00;;;5.49
80422;BMP280;69763;50.182;9.144;2024-03-23T06:11:16;99097.63;;;5.45
80422;BMP280;69763;50.182;9.144;2024-03-23T06:13:41;99092.53;;;5.42
80422;BMP280;69763;50.182;9.144;2024-03-23T06:16:07;99109.16;;;5.40
80422;BMP280;69763;50.182;9.144;2024-03-23T06:18:32;99104.03;;;5.36
80422;BMP280;69763;50.182;9.144;2024-03-23T06:20:59;99116.78;;;5.30
80422;BMP280;69763;50.182;9.144;2024-03-23T06:23:24;99123.13;;;5.27
80422;BMP280;69763;50.182;9.144;2024-03-23T06:25:49;99118.28;;;5.26
80422;BMP280;69763;50.182;9.144;2024-03-23T06:28:15;99136.56;;;5.27
80422;BMP280;69763;50.182;9.144;2024-03-23T06:30:41;99130.97;;;5.25
80422;BMP280;69763;50.182;9.144;2024-03-23T06:33:06;99137.34;;;5.17
80422;BMP280;69763;50.182;9.144;2024-03-23T06:35:31;99146.41;;;5.08
80422;BMP280;69763;50.182;9.144;2024-03-23T06:37:58;99151.78;;;5.02
80422;BMP280;69763;50.182;9.144;2024-03-23T06:40:23;99133.97;;;4.99
80422;BMP280;69763;50.182;9.144;2024-03-23T06:42:49;99143.72;;;4.97
80422;BMP280;69763;50.182;9.144;2024-03-23T06:45:14;99153.00;;;4.96
80422;BMP280;69763;50.182;9.144;2024-03-23T06:47:40;99159.38;;;4.93
80422;BMP280;69763;50.182;9.144;2024-03-23T06:50:06;99180.88;;;4.93
80422;BMP280;69763;50.182;9.144;2024-03-23T06:52:32;99184.75;;;4.92
80422;BMP280;69763;50.182;9.144;2024-03-23T06:54:58;99193.53;;;4.98
80422;BMP280;69763;50.182;9.144;2024-03-23T06:57:24;99209.16;;;4.99
80422;BMP280;69763;50.182;9.144;2024-03-23T06:59:49;99211.13;;;4.99
80422;BMP280;69763;50.182;9.144;2024-03-23T07:02:14;99214.28;;;5.03
80422;BMP280;69763;50.182;9.144;2024-03-23T07:04:40;99228.47;;;5.03
80422;BMP280;69763;50.182;9.144;2024-03-23T07:07:05;99250.19;;;5.00
80422;BMP280;69763;50.182;9.144;2024-03-23T07:09:31;99250.41;;;4.96
80422;BMP280;69763;50.182;9.144;2024-03-23T07:11:57;99252.38;;;4.96
80422;BMP280;69763;50.182;9.144;2024-03-23T07:14:23;99243.09;;;4.97
80422;BMP280;69763;50.182;9.144;2024-03-23T07:16:49;99260.94;;;4.94
80422;BMP280;69763;50.182;9.144;2024-03-23T07:19:14;99254.84;;;4.94
80422;BMP280;69763;50.182;9.144;2024-03-23T07:21:39;99255.56;;;4.94
80422;BMP280;69763;50.182;9.144;2024-03-23T07:24:05;99264.09;;;4.98
80422;BMP280;69763;50.182;9.144;2024-03-23T07:26:31;99273.16;;;5.07
80422;BMP280;69763;50.182;9.144;2024-03-23T07:28:57;99280.44;;;5.12
80422;BMP280;69763;50.182;9.144;2024-03-23T07:31:23;99296.34;;;5.15
80422;BMP280;69763;50.182;9.144;2024-03-23T07:33:48;99300.97;;;5.20
80422;BMP280;69763;50.182;9.144;2024-03-23T07:36:14;99316.31;;;5.36
80422;BMP280;69763;50.182;9.144;2024-03-23T07:38:40;99327.78;;;5.54
80422;BMP280;69763;50.182;9.144;2024-03-23T07:41:06;99333.16;;;5.65
80422;BMP280;69763;50.182;9.144;2024-03-23T07:43:32;99344.13;;;5.72
80422;BMP280;69763;50.182;9.144;2024-03-23T07:45:59;99345.34;;;5.77
80422;BMP280;69763;50.182;9.144;2024-03-23T07:48:25;99337.22;;;5.94
80422;BMP280;69763;50.182;9.144;2024-03-23T07:50:58;99351.06;;;6.14
80422;BMP280;69763;50.182;9.144;2024-03-23T07:53:24;99359.78;;;6.32
80422;BMP280;69763;50.182;9.144;2024-03-23T07:55:53;99360.69;;;6.51
80422;BMP280;69763;50.182;9.144;2024-03-23T07:58:19;99367.44;;;6.69
80422;BMP280;69763;50.182;9.144;2024-03-23T08:00:44;99376.63;;;6.84
80422;BMP280;69763;50.182;9.144;2024-03-23T08:03:11;99377.78;;;6.95
80422;BMP280;69763;50.182;9.144;2024-03-23T08:05:36;99372.13;;;6.98
80422;BMP280;69763;50.182;9.144;2024-03-23T08:08:01;99381.63;;;7.05
80422;BMP280;69763;50.182;9.144;2024-03-23T08:10:27;99384.44;;;7.23
80422;BMP280;69763;50.182;9.144;2024-03-23T08:12:52;99385.41;;;7.50
80422;BMP280;69763;50.182;9.144;2024-03-23T08:15:18;99382.28;;;7.46
80422;BMP280;69763;50.182;9.144;2024-03-23T08:17:43;99393.94;;;7.30
80422;BMP280;69763;50.182;9.144;2024-03-23T08:20:11;99394.03;;;7.19
80422;BMP280;69763;50.182;9.144;2024-03-23T08:22:36;99403.66;;;7.09
80422;BMP280;69763;50.182;9.144;2024-03-23T08:25:01;99412.06;;;6.94
80422;BMP280;69763;50.182;9.144;2024-03-23T08:27:27;99407.34;;;7.06
80422;BMP280;69763;50.182;9.144;2024-03-23T08:29:52;99413.66;;;7.14
80422;BMP280;69763;50.182;9.144;2024-03-23T08:32:17;99426.22;;;7.06
80422;BMP280;69763;50.182;9.144;2024-03-23T08:34:43;99417.88;;;7.09
80422;BMP280;69763;50.182;9.144;2024-03-23T08:37:10;99415.56;;;7.24
80422;BMP280;69763;50.182;9.144;2024-03-23T08:39:35;99433.88;;;7.32
80422;BMP280;69763;50.182;9.144;2024-03-23T08:42:00;99418.59;;;7.10
80422;BMP280;69763;50.182;9.144;2024-03-23T08:44:26;99427.63;;;7.12
80422;BMP280;69763;50.182;9.144;2024-03-23T08:46:51;99430.81;;;7.11
80422;BMP280;69763;50.182;9.144;2024-03-23T08:49:17;99444.31;;;7.41
80422;BMP280;69763;50.182;9.144;2024-03-23T08:51:42;99442.63;;;7.67
80422;BMP280;69763;50.182;9.144;2024-03-23T08:54:09;99448.41;;;7.83
80422;BMP280;69763;50.182;9.144;2024-03-23T08:56:34;99446.50;;;7.96
80422;BMP280;69763;50.182;9.144;2024-03-23T08:58:59;99456.66;;;8.33
80422;BMP280;69763;50.182;9.144;2024-03-23T09:01:25;99450.75;;;8.35
80422;BMP280;69763;50.182;9.144;2024-03-23T09:03:50;99460.88;;;8.47
80422;BMP280;69763;50.182;9.144;2024-03-23T09:06:16;99461.47;;;8.59
80422;BMP280;69763;50.182;9.144;2024-03-23T09:08:41;99463.97;;;8.57
80422;BMP280;69763;50.182;9.144;2024-03-23T09:11:09;99459.75;;;8.80
80422;BMP280;69763;50.182;9.144;2024-03-23T09:13:36;99448.94;;;8.94
80422;BMP280;69763;50.182;9.144;2024-03-23T09:16:02;99451.19;;;8.76
80422;BMP280;69763;50.182;9.144;2024-03-23T09:18:30;99458.69;;;8.46
80422;BMP280;69763;50.182;9.144;2024-03-23T09:20:56;99456.13;;;8.35
80422;BMP280;69763;50.182;9.144;2024-03-23T09:23:21;99462.66;;;8.64
80422;BMP280;69763;50.182;9.144;2024-03-23T09:25:47;99459.53;;;8.92
80422;BMP280;69763;50.182;9.144;2024-03-23T09:28:13;99456.13;;;9.23
80422;BMP280;69763;50.182;9.144;2024-03-23T09:30:39;99468.84;;;9.28
80422;BMP280;69763;50.182;9.144;2024-03-23T09:33:04;99481.06;;;9.16
80422;BMP280;69763;50.182;9.144;2024-03-23T09:35:30;99478.63;;;9.31
80422;BMP280;69763;50.182;9.144;2024-03-23T09:37:55;99478.72;;;9.25
80422;BMP280;69763;50.182;9.144;2024-03-23T09:40:20;99477.94;;;8.93
80422;BMP280;69763;50.182;9.144;2024-03-23T09:42:49;99482.81;;;8.81
80422;BMP280;69763;50.182;9.144;2024-03-23T09:45:20;99481.59;;;8.96
80422;BMP280;69763;50.182;9.144;2024-03-23T09:47:46;99484.63;;;9.24
80422;BMP280;69763;50.182;9.144;2024-03-23T09:50:12;99473.56;;;9.41
80422;BMP280;69763;50.182;9.144;2024-03-23T09:52:38;99480.69;;;9.25
80422;BMP280;69763;50.182;9.144;2024-03-23T09:55:04;99481.88;;;9.11
80422;BMP280;69763;50.182;9.144;2024-03-23T09:57:29;99486.94;;;9.01
80422;BMP280;69763;50.182;9.144;2024-03-23T09:59:55;99482.47;;;9.04
80422;BMP280;69763;50.182;9.144;2024-03-23T10:02:21;99483.72;;;9.21
80422;BMP280;69763;50.182;9.144;2024-03-23T10:04:47;99488.78;;;9.57
80422;BMP280;69763;50.182;9.144;2024-03-23T10:07:13;99482.06;;;9.90
80422;BMP280;69763;50.182;9.144;2024-03-23T10:09:39;99490.47;;;10.39
80422;BMP280;69763;50.182;9.144;2024-03-23T10:12:09;99495.28;;;10.54
80422;BMP280;69763;50.182;9.144;2024-03-23T10:14:34;99488.81;;;10.70
80422;BMP280;69763;50.182;9.144;2024-03-23T10:17:11;99492.34;;;10.44
80422;BMP280;69763;50.182;9.144;2024-03-23T10:19:38;99476.72;;;9.97
80422;BMP280;69763;50.182;9.144;2024-03-23T10:22:04;99479.09;;;9.61
80422;BMP280;69763;50.182;9.144;2024-03-23T10:24:29;99482.19;;;9.39
80422;BMP280;69763;50.182;9.144;2024-03-23T10:26:57;99481.94;;;9.24
80422;BMP280;69763;50.182;9.144;2024-03-23T10:29:22;99484.44;;;9.22
80422;BMP280;69763;50.182;9.144;2024-03-23T10:31:48;99478.31;;;9.21
80422;BMP280;69763;50.182;9.144;2024-03-23T10:34:13;99472.06;;;9.26
80422;BMP280;69763;50.182;9.144;2024-03-23T10:36:41;99456.91;;;9.50
80422;BMP280;69763;50.182;9.144;2024-03-23T10:39:07;99454.25;;;10.02
80422;BMP280;69763;50.182;9.144;2024-03-23T10:41:33;99461.44;;;10.47
80422;BMP280;69763;50.182;9.144;2024-03-23T10:44:01;99444.38;;;10.52
80422;BMP280;69763;50.182;9.144;2024-03-23T10:46:27;99449.88;;;10.60
80422;BMP280;69763;50.182;9.144;2024-03-23T10:48:52;99437.66;;;10.66
80422;BMP280;69763;50.182;9.144;2024-03-23T10:51:18;99434.59;;;10.70
80422;BMP280;69763;50.182;9.144;2024-03-23T10:53:46;99427.88;;;10.84
80422;BMP280;69763;50.182;9.144;2024-03-23T10:56:13;99431.16;;;11.32
80422;BMP280;69763;50.182;9.144;2024-03-23T10:58:43;99424.44;;;11.89
80422;BMP280;69763;50.182;9.144;2024-03-23T11:01:10;99410.47;;;12.59
80422;BMP280;69763;50.182;9.144;2024-03-23T11:03:37;99420.47;;;12.79
80422;BMP280;69763;50.182;9.144;2024-03-23T11:06:03;99436.75;;;12.64
80422;BMP280;69763;50.182;9.144;2024-03-23T11:08:36;99478.97;;;11.99
80422;BMP280;69763;50.182;9.144;2024-03-23T11:11:19;99487.72;;;10.86
80422;BMP280;69763;50.182;9.144;2024-03-23T11:13:44;99498.34;;;9.58
80422;BMP280;69763;50.182;9.144;2024-03-23T11:16:14;99502.22;;;8.42
80422;BMP280;69763;50.182;9.144;2024-03-23T11:18:39;99507.44;;;7.26
80422;BMP280;69763;50.182;9.144;2024-03-23T11:21:06;99499.31;;;6.05
80422;BMP280;69763;50.182;9.144;2024-03-23T11:23:31;99499.53;;;5.29
80422;BMP280;69763;50.182;9.144;2024-03-23T11:25:57;99488.78;;;4.53
80422;BMP280;69763;50.182;9.144;2024-03-23T11:28:24;99481.66;;;4.02
80422;BMP280;69763;50.182;9.144;2024-03-23T11:30:49;99496.03;;;3.73
80422;BMP280;69763;50.182;9.144;2024-03-23T11:33:15;99502.03;;;3.63
80422;BMP280;69763;50.182;9.144;2024-03-23T11:35:41;99513.69;;;3.60
80422;BMP280;69763;50.182;9.144;2024-03-23T11:38:07;99502.50;;;3.61
80422;BMP280;69763;50.182;9.144;2024-03-23T11:40:34;99513.84;;;3.76
80422;BMP280;69763;50.182;9.144;2024-03-23T11:43:00;99519.19;;;4.02
80422;BMP280;69763;50.182;9.144;2024-03-23T11:45:27;99531.81;;;4.27
80422;BMP280;69763;50.182;9.144;2024-03-23T11:48:06;99527.47;;;4.78
80422;BMP280;69763;50.182;9.144;2024-03-23T11:50:32;99513.91;;;5.10
80422;BMP280;69763;50.182;9.144;2024-03-23T11:53:16;99514.19;;;5.34
80422;BMP280;69763;50.182;9.144;2024-03-23T11:55:43;99495.44;;;5.62
80422;BMP280;69763;50.182;9.144;2024-03-23T11:58:08;99491.75;;;5.87
80422;BMP280;69763;50.182;9.144;2024-03-23T12:00:35;99498.56;;;6.10
80422;BMP280;69763;50.182;9.144;2024-03-23T12:03:01;99487.81;;;6.22
80422;BMP280;69763;50.182;9.144;2024-03-23T12:05:26;99499.31;;;6.28
80422;BMP280;69763;50.182;9.144;2024-03-23T12:07:52;99486.81;;;6.30
80422;BMP280;69763;50.182;9.144;2024-03-23T12:10:19;99486.53;;;6.39
80422;BMP280;69763;50.182;9.144;2024-03-23T12:12:44;99485.53;;;6.42
80422;BMP280;69763;50.182;9.144;2024-03-23T12:15:10;99477.22;;;6.40
80422;BMP280;69763;50.182;9.144;2024-03-23T12:17:37;99458.13;;;6.44
80422;BMP280;69763;50.182;9.144;2024-03-23T12:20:02;99455.88;;;6.53
80422;BMP280;69763;50.182;9.144;2024-03-23T12:22:28;99451.22;;;6.60
80422;BMP280;69763;50.182;9.144;2024-03-23T12:24:54;99446.16;;;6.86
80422;BMP280;69763;50.182;9.144;2024-03-23T12:27:19;99434.53;;;7.08
80422;BMP280;69763;50.182;9.144;2024-03-23T12:29:44;99414.59;;;7.22
80422;BMP280;69763;50.182;9.144;2024-03-23T12:32:10;99414.84;;;7.48
80422;BMP280;69763;50.182;9.144;2024-03-23T12:34:41;99412.44;;;7.69
80422;BMP280;69763;50.182;9.144;2024-03-23T12:39:42;99401.56;;;7.56
80422;BMP280;69763;50.182;9.144;2024-03-23T12:42:07;99403.06;;;7.51
80422;BMP280;69763;50.182;9.144;2024-03-23T12:44:33;99394.47;;;7.53
80422;BMP280;69763;50.182;9.144;2024-03-23T12:46:58;99393.72;;;7.52
80422;BMP280;69763;50.182;9.144;2024-03-23T12:49:23;99395.31;;;7.66
80422;BMP280;69763;50.182;9.144;2024-03-23T12:51:55;99387.47;;;7.87
80422;BMP280;69763;50.182;9.144;2024-03-23T12:54:21;99378.94;;;8.07
80422;BMP280;69763;50.182;9.144;2024-03-23T12:56:46;99382.34;;;8.27
80422;BMP280;69763;50.182;9.144;2024-03-23T12:59:12;99373.50;;;8.45
80422;BMP280;69763;50.182;9.144;2024-03-23T13:01:37;99386.63;;;8.73
80422;BMP280;69763;50.182;9.144;2024-03-23T13:04:03;99387.03;;;9.09
80422;BMP280;69763;50.182;9.144;2024-03-23T13:06:28;99376.78;;;9.60
80422;BMP280;69763;50.182;9.144;2024-03-23T13:08:55;99372.22;;;10.28
80422;BMP280;69763;50.182;9.144;2024-03-23T13:11:20;99364.13;;;10.70
80422;BMP280;69763;50.182;9.144;2024-03-23T13:13:45;99366.72;;;10.96
80422;BMP280;69763;50.182;9.144;2024-03-23T13:16:11;99353.22;;;11.32
80422;BMP280;69763;50.182;9.144;2024-03-23T13:18:36;99336.69;;;11.58
80422;BMP280;69763;50.182;9.144;2024-03-23T13:21:02;99342.19;;;11.73
80422;BMP280;69763;50.182;9.144;2024-03-23T13:23:29;99342.63;;;11.49
80422;BMP280;69763;50.182;9.144;2024-03-23T13:25:57;99352.75;;;11.20
80422;BMP280;69763;50.182;9.144;2024-03-23T13:28:23;99356.66;;;10.83
80422;BMP280;69763;50.182;9.144;2024-03-23T13:30:52;99354.09;;;10.57
80422;BMP280;69763;50.182;9.144;2024-03-23T13:33:17;99365.31;;;10.40
80422;BMP280;69763;50.182;9.144;2024-03-23T13:35:49;99370.06;;;10.14
80422;BMP280;69763;50.182;9.144;2024-03-23T13:38:14;99402.75;;;9.82
80422;BMP280;69763;50.182;9.144;2024-03-23T13:40:49;99418.84;;;9.35
80422;BMP280;69763;50.182;9.144;2024-03-23T13:43:16;99456.78;;;8.22
80422;BMP280;69763;50.182;9.144;2024-03-23T13:45:41;99487.47;;;7.41
80422;BMP280;69763;50.182;9.144;2024-03-23T13:48:07;99497.50;;;6.58
80422;BMP280;69763;50.182;9.144;2024-03-23T13:50:32;99495.91;;;5.83
80422;BMP280;69763;50.182;9.144;2024-03-23T13:52:58;99512.94;;;5.13
80422;BMP280;69763;50.182;9.144;2024-03-23T13:55:23;99523.00;;;4.64
80422;BMP280;69763;50.182;9.144;2024-03-23T13:57:48;99547.31;;;4.12
80422;BMP280;69763;50.182;9.144;2024-03-23T14:00:16;99549.28;;;3.60
80422;BMP280;69763;50.182;9.144;2024-03-23T14:02:41;99524.63;;;3.10
80422;BMP280;69763;50.182;9.144;2024-03-23T14:05:07;99531.56;;;2.81
80422;BMP280;69763;50.182;9.144;2024-03-23T14:07:32;99536.75;;;2.70
80422;BMP280;69763;50.182;9.144;2024-03-23T14:10:02;99525.03;;;2.68
80422;BMP280;69763;50.182;9.144;2024-03-23T14:12:28;99531.13;;;2.68
80422;BMP280;69763;50.182;9.144;2024-03-23T14:14:53;99519.03;;;2.73
80422;BMP280;69763;50.182;9.144;2024-03-23T14:17:20;99499.66;;;2.98
80422;BMP280;69763;50.182;9.144;2024-03-23T14:19:45;99480.31;;;3.35
80422;BMP280;69763;50.182;9.144;2024-03-23T14:22:10;99473.84;;;3.73
80422;BMP280;69763;50.182;9.144;2024-03-23T14:24:36;99470.69;;;4.06
80422;BMP280;69763;50.182;9.144;2024-03-23T14:27:01;99466.28;;;4.45
80422;BMP280;69763;50.182;9.144;2024-03-23T14:29:27;99467.03;;;5.11
80422;BMP280;69763;50.182;9.144;2024-03-23T14:31:52;99469.78;;;5.61
80422;BMP280;69763;50.182;9.144;2024-03-23T14:34:19;99462.91;;;6.10
80422;BMP280;69763;50.182;9.144;2024-03-23T14:36:45;99463.78;;;6.40
80422;BMP280;69763;50.182;9.144;2024-03-23T14:39:10;99470.28;;;6.67
80422;BMP280;69763;50.182;9.144;2024-03-23T14:41:35;99465.66;;;7.09
80422;BMP280;69763;50.182;9.144;2024-03-23T14:44:01;99474.69;;;7.47
80422;BMP280;69763;50.182;9.144;2024-03-23T14:46:26;99471.13;;;7.33
80422;BMP280;69763;50.182;9.144;2024-03-23T14:48:51;99468.72;;;7.24
80422;BMP280;69763;50.182;9.144;2024-03-23T14:51:18;99463.53;;;7.32
80422;BMP280;69763;50.182;9.144;2024-03-23T14:53:45;99463.59;;;7.20
80422;BMP280;69763;50.182;9.144;2024-03-23T14:56:11;99458.56;;;7.36
80422;BMP280;69763;50.182;9.144;2024-03-23T14:58:36;99455.97;;;7.84
80422;BMP280;69763;50.182;9.144;2024-03-23T15:01:01;99445.66;;;8.31
80422;BMP280;69763;50.182;9.144;2024-03-23T15:03:27;99440.28;;;8.44
80422;BMP280;69763;50.182;9.144;2024-03-23T15:05:53;99430.59;;;8.73
80422;BMP280;69763;50.182;9.144;2024-03-23T15:08:20;99435.34;;;8.67